Time;durP1;ratioP1;P1;durP2;ratioP2;P2;SDS_P1;SDS_P2;PMS_P1;PMS_P2;Temp;Humidity;BMP_temperature;BMP_pressure;BME280_temperature;BME280_humidity;BME280_pressure;Samples;Min_cycle;Max_cycle;Signal;HPM_P1;HPM_P2
2023/09/12 00:00:40;;;;;;;8.07;7.28;;;23.10;90.50;;;;;;5050892;28;20573;-72
2023/09/12 00:03:07;;;;;;;7.10;6.50;;;23.10;90.50;;;;;;5053689;28;20795;-72
2023/09/12 00:05:34;;;;;;;6.97;6.38;;;23.10;90.80;;;;;;5050915;28;20433;-72
2023/09/12 00:08:03;;;;;;;6.93;6.32;;;23.10;90.80;;;;;;5054188;28;20425;-72
2023/09/12 00:10:30;;;;;;;6.93;6.30;;;23.10;90.70;;;;;;5051026;28;20413;-71
2023/09/12 00:12:57;;;;;;;7.20;6.50;;;22.90;90.70;;;;;;5046480;28;20909;-72
2023/09/12 00:15:23;;;;;;;7.07;6.38;;;22.80;91.00;;;;;;5051218;28;20499;-73
2023/09/12 00:17:50;;;;;;;6.65;6.15;;;22.60;91.10;;;;;;5055880;28;20411;-71
2023/09/12 00:20:17;;;;;;;7.20;6.60;;;22.50;91.60;;;;;;5052540;28;20425;-72
2023/09/12 00:22:44;;;;;;;6.57;5.30;;;22.40;91.70;;;;;;5057751;28;20427;-74
2023/09/12 00:25:12;;;;;;;6.57;5.97;;;22.30;92.30;;;;;;5057428;28;20430;-72
2023/09/12 00:27:38;;;;;;;5.90;5.40;;;22.40;92.10;;;;;;5079831;28;20403;-72
2023/09/12 00:30:06;;;;;;;6.50;5.95;;;22.40;92.50;;;;;;5078349;28;20416;-72
2023/09/12 00:32:33;;;;;;;7.00;6.40;;;22.40;92.10;;;;;;5057961;28;20405;-71
2023/09/12 00:35:00;;;;;;;6.40;5.80;;;22.30;92.00;;;;;;5056737;28;20417;-73
2023/09/12 00:37:26;;;;;;;6.95;5.93;;;22.10;92.80;;;;;;5055386;28;20913;-72
2023/09/12 00:39:53;;;;;;;6.80;6.20;;;22.00;93.00;;;;;;5058086;28;20433;-73
2023/09/12 00:42:21;;;;;;;6.68;5.97;;;22.00;93.60;;;;;;5045225;28;20919;-72
2023/09/12 00:44:48;;;;;;;6.70;6.10;;;22.00;93.70;;;;;;5047164;28;20425;-71
2023/09/12 00:47:15;;;;;;;6.50;5.80;;;22.10;93.70;;;;;;5049918;28;20416;-71
2023/09/12 00:49:42;;;;;;;7.35;6.50;;;22.10;94.00;;;;;;5056969;28;20436;-71
2023/09/12 00:52:10;;;;;;;6.90;6.30;;;22.10;94.20;;;;;;5054510;28;20917;-73
2023/09/12 00:54:37;;;;;;;6.82;6.13;;;22.10;94.00;;;;;;5054807;28;20852;-73
2023/09/12 00:57:04;;;;;;;7.15;6.45;;;22.10;94.20;;;;;;5050553;28;20429;-73
2023/09/12 00:59:33;;;;;;;7.97;7.30;;;22.10;94.40;;;;;;5037216;28;20787;-72
2023/09/12 01:01:59;;;;;;;7.90;7.20;;;22.00;94.00;;;;;;5059691;28;20442;-71
2023/09/12 01:04:27;;;;;;;7.68;6.97;;;21.80;94.40;;;;;;5052078;28;20421;-70
2023/09/12 01:06:54;;;;;;;7.50;6.80;;;21.70;94.70;;;;;;5053908;28;20436;-72
2023/09/12 01:09:21;;;;;;;7.40;6.80;;;21.60;95.30;;;;;;5048936;28;20433;-71
2023/09/12 01:11:47;;;;;;;8.07;7.37;;;21.50;95.70;;;;;;5045480;28;20917;-72
2023/09/12 01:14:14;;;;;;;8.75;7.88;;;21.50;95.90;;;;;;5049460;28;20467;-72
2023/09/12 01:16:42;;;;;;;8.55;7.78;;;21.60;96.30;;;;;;5058303;28;20424;-72
2023/09/12 01:19:14;;;;;;;8.30;7.60;;;21.60;96.10;;;;;;5049174;28;20566;-73
2023/09/12 01:22:27;;;;;;;9.77;8.88;;;21.50;96.00;;;;;;5052576;28;20409;-70
2023/09/12 01:25:12;;;;;;;8.23;7.53;;;21.50;96.20;;;;;;5038346;28;20414;-72
2023/09/12 01:27:43;;;;;;;8.95;7.50;;;21.40;96.40;;;;;;5046819;28;20425;-72
2023/09/12 01:30:10;;;;;;;8.50;7.80;;;21.40;96.90;;;;;;5049244;28;20405;-72
2023/09/12 01:32:38;;;;;;;8.00;7.30;;;21.40;96.80;;;;;;5048649;28;20999;-71
2023/09/12 01:35:05;;;;;;;9.50;8.63;;;21.40;96.90;;;;;;5049027;28;20409;-70
2023/09/12 01:37:33;;;;;;;9.18;8.27;;;21.30;97.10;;;;;;5048545;28;20425;-72
2023/09/12 01:39:59;;;;;;;9.02;8.23;;;21.30;97.40;;;;;;5048879;28;20903;-71
2023/09/12 01:42:31;;;;;;;9.70;8.80;;;21.30;97.60;;;;;;5048578;28;20425;-72
2023/09/12 01:45:01;;;;;;;9.95;9.05;;;21.20;97.80;;;;;;5048707;28;20405;-77
2023/09/12 01:47:29;;;;;;;9.25;8.32;;;21.20;98.10;;;;;;5042634;28;20437;-70
2023/09/12 01:49:59;;;;;;;9.38;8.48;;;21.20;98.30;;;;;;5062698;28;20441;-70
2023/09/12 01:52:27;;;;;;;9.75;8.85;;;21.20;98.50;;;;;;5071582;28;20409;-69
2023/09/12 01:54:56;;;;;;;8.75;8.02;;;21.30;98.40;;;;;;5073693;28;20409;-70
2023/09/12 01:57:23;;;;;;;9.15;8.35;;;21.20;97.90;;;;;;5072927;28;20417;-71
2023/09/12 01:59:50;;;;;;;8.43;7.72;;;21.30;98.00;;;;;;5073457;28;20408;-71
2023/09/12 02:02:19;;;;;;;9.00;8.20;;;21.30;97.80;;;;;;5062525;28;20912;-71
2023/09/12 02:04:52;;;;;;;8.57;7.78;;;21.40;97.80;;;;;;5047940;28;20430;-72
2023/09/12 02:07:18;;;;;;;8.50;7.70;;;21.40;97.60;;;;;;5049959;28;20428;-72
2023/09/12 02:09:45;;;;;;;9.02;8.15;;;21.50;97.40;;;;;;5048154;28;20409;-70
2023/09/12 02:12:12;;;;;;;8.77;7.97;;;21.50;97.40;;;;;;5065114;22;20416;-69
2023/09/12 02:14:39;;;;;;;8.45;7.70;;;21.50;97.40;;;;;;5100246;28;20435;-69
2023/09/12 02:17:05;;;;;;;8.18;7.38;;;21.50;97.30;;;;;;5099061;28;20847;-71
2023/09/12 02:19:33;;;;;;;8.63;7.82;;;21.50;97.30;;;;;;5099736;28;20419;-69
2023/09/12 02:22:00;;;;;;;9.55;7.95;;;21.50;97.20;;;;;;5095744;28;20421;-69
2023/09/12 02:24:27;;;;;;;7.50;6.90;;;21.50;97.20;;;;;;5102966;28;20763;-70
2023/09/12 02:26:53;;;;;;;8.52;7.72;;;21.50;97.00;;;;;;5104806;28;20550;-69
2023/09/12 02:29:20;;;;;;;8.75;8.05;;;21.50;96.60;;;;;;5105263;28;20404;-71
2023/09/12 02:31:47;;;;;;;8.82;8.00;;;21.40;96.50;;;;;;5103798;28;20866;-69
2023/09/12 02:34:13;;;;;;;8.50;7.80;;;21.30;96.90;;;;;;5103724;28;20446;-70
2023/09/12 02:36:41;;;;;;;8.70;8.00;;;21.20;97.10;;;;;;5097331;28;20404;-70
2023/09/12 02:39:08;;;;;;;9.30;8.50;;;21.20;97.30;;;;;;5103496;28;20412;-71
2023/09/12 02:41:35;;;;;;;9.70;8.80;;;21.20;97.60;;;;;;5102824;28;20424;-70
2023/09/12 02:44:01;;;;;;;9.10;8.20;;;21.20;97.80;;;;;;5104793;28;20855;-70
2023/09/12 02:46:28;;;;;;;9.55;8.65;;;21.20;98.10;;;;;;5102518;28;20420;-70
2023/09/12 02:48:55;;;;;;;8.95;8.15;;;21.20;97.90;;;;;;5103375;28;20790;-70
2023/09/12 02:51:22;;;;;;;9.00;8.10;;;21.20;98.00;;;;;;5103415;28;20412;-71
2023/09/12 02:53:50;;;;;;;8.63;7.82;;;21.30;97.70;;;;;;5102923;28;20504;-70
2023/09/12 02:56:16;;;;;;;7.95;7.25;;;21.30;97.90;;;;;;5104117;28;20412;-70
2023/09/12 02:58:46;;;;;;;7.97;7.28;;;21.30;97.70;;;;;;5104520;28;20412;-69
2023/09/12 03:01:15;;;;;;;8.00;7.20;;;21.30;97.40;;;;;;5103192;28;20404;-70
2023/09/12 03:03:46;;;;;;;7.80;7.20;;;21.40;97.20;;;;;;5098155;28;20412;-68
2023/09/12 03:06:13;;;;;;;7.93;7.13;;;21.40;97.10;;;;;;5103836;28;20428;-70
2023/09/12 03:08:40;;;;;;;6.60;6.10;;;21.40;96.80;;;;;;5097647;28;20412;-70
2023/09/12 03:11:08;;;;;;;7.17;6.57;;;21.40;96.80;;;;;;5103936;28;20416;-69
2023/09/12 03:13:37;;;;;;;7.38;6.60;;;21.40;96.60;;;;;;5094009;28;20423;-69
2023/09/12 03:16:04;;;;;;;7.03;6.43;;;21.40;96.60;;;;;;5103257;28;20858;-70
2023/09/12 03:18:30;;;;;;;7.63;6.93;;;21.50;96.40;;;;;;5103465;28;20442;-69
2023/09/12 03:20:57;;;;;;;7.38;6.75;;;21.50;96.40;;;;;;5103723;28;20423;-70
2023/09/12 03:23:24;;;;;;;7.63;6.93;;;21.50;96.30;;;;;;5103009;28;20428;-70
2023/09/12 03:25:50;;;;;;;7.30;6.70;;;21.50;96.40;;;;;;5102999;28;20424;-70
2023/09/12 03:28:18;;;;;;;7.30;6.70;;;21.50;96.40;;;;;;5104577;28;20400;-69
2023/09/12 03:30:45;;;;;;;7.90;7.10;;;21.50;96.30;;;;;;5105566;28;20925;-70
2023/09/12 03:33:12;;;;;;;8.38;7.57;;;21.50;96.50;;;;;;5106800;28;20531;-70
2023/09/12 03:35:39;;;;;;;8.05;7.35;;;21.50;96.80;;;;;;5107605;28;20917;-71
2023/09/12 03:38:05;;;;;;;8.45;7.50;;;21.50;96.40;;;;;;5106315;28;20452;-70
2023/09/12 03:40:33;;;;;;;8.53;7.73;;;21.40;96.70;;;;;;5106723;27;20917;-70
2023/09/12 03:42:59;;;;;;;8.98;8.18;;;21.40;96.70;;;;;;5105896;28;20543;-69
2023/09/12 03:45:28;;;;;;;8.07;7.38;;;21.40;96.50;;;;;;5103797;28;20953;-69
2023/09/12 03:47:54;;;;;;;9.02;8.13;;;21.40;97.10;;;;;;5106643;28;20404;-71
2023/09/12 03:50:21;;;;;;;8.50;7.90;;;21.40;97.20;;;;;;5106487;28;20823;-71
2023/09/12 03:52:48;;;;;;;9.60;8.70;;;21.40;97.30;;;;;;5104591;28;20739;-71
2023/09/12 03:55:15;;;;;;;8.98;8.13;;;21.40;96.90;;;;;;5105307;28;20534;-71
2023/09/12 03:57:42;;;;;;;9.48;8.57;;;21.40;97.40;;;;;;5104432;28;20484;-73
2023/09/12 04:00:09;;;;;;;8.93;8.13;;;21.40;97.10;;;;;;5105905;28;20436;-70
2023/09/12 04:02:37;;;;;;;8.30;7.60;;;21.40;97.20;;;;;;5104813;28;20488;-72
2023/09/12 04:05:05;;;;;;;8.10;7.40;;;21.40;96.90;;;;;;5102072;28;20424;-71
2023/09/12 04:07:31;;;;;;;8.47;7.67;;;21.50;96.60;;;;;;5105564;28;20789;-74
2023/09/12 04:09:58;;;;;;;8.38;7.68;;;21.50;96.60;;;;;;5105109;28;20623;-68
2023/09/12 04:12:25;;;;;;;8.98;8.18;;;21.50;96.40;;;;;;5104290;28;20866;-68
2023/09/12 04:14:52;;;;;;;8.20;7.50;;;21.50;96.50;;;;;;5104336;28;20424;-68
2023/09/12 04:17:18;;;;;;;8.55;7.85;;;21.50;96.60;;;;;;5103934;27;20493;-67
2023/09/12 04:19:46;;;;;;;12.25;11.10;;;21.50;96.40;;;;;;5103954;28;20644;-68
2023/09/12 04:22:14;;;;;;;8.30;7.60;;;21.50;96.40;;;;;;5104344;28;20424;-68
2023/09/12 04:24:41;;;;;;;8.43;7.72;;;21.50;96.40;;;;;;5100941;27;20892;-68
2023/09/12 04:27:08;;;;;;;9.35;8.55;;;21.50;96.40;;;;;;5103837;28;20428;-72
2023/09/12 04:29:35;;;;;;;8.87;8.00;;;21.50;96.50;;;;;;5103773;28;20424;-70
2023/09/12 04:32:03;;;;;;;8.40;7.60;;;21.50;96.30;;;;;;5101255;28;20427;-70
2023/09/12 04:34:30;;;;;;;8.30;7.30;;;21.50;96.20;;;;;;5103513;28;20446;-71
2023/09/12 04:36:59;;;;;;;8.10;7.40;;;21.50;96.20;;;;;;5101486;27;20489;-73
2023/09/12 04:39:26;;;;;;;8.30;7.50;;;21.50;96.20;;;;;;5101634;28;20443;-72
2023/09/12 04:41:52;;;;;;;8.20;7.50;;;21.50;95.90;;;;;;5103911;28;20511;-73
2023/09/12 04:44:19;;;;;;;8.10;7.40;;;21.50;96.00;;;;;;5103141;28;20924;-70
2023/09/12 04:46:46;;;;;;;8.00;7.20;;;21.50;96.30;;;;;;5101591;28;20854;-71
2023/09/12 04:49:13;;;;;;;8.90;7.55;;;21.50;96.00;;;;;;5100019;28;20428;-70
2023/09/12 04:51:39;;;;;;;7.70;7.10;;;21.60;95.90;;;;;;5104374;28;20411;-74
2023/09/12 04:54:07;;;;;;;7.60;7.00;;;21.60;96.50;;;;;;5103707;27;20743;-72
2023/09/12 04:56:34;;;;;;;7.60;7.00;;;21.60;96.10;;;;;;5103746;28;20881;-72
2023/09/12 04:59:01;;;;;;;7.45;6.80;;;21.70;97.00;;;;;;5100292;28;20431;-71
2023/09/12 05:01:27;;;;;;;8.05;7.25;;;21.60;97.60;;;;;;5103741;27;20766;-73
2023/09/12 05:03:54;;;;;;;6.63;6.13;;;21.50;98.80;;;;;;5101697;28;20443;-71
2023/09/12 05:06:21;;;;;;;6.85;6.22;;;21.50;98.00;;;;;;5102348;28;20428;-72
2023/09/12 05:08:48;;;;;;;7.38;6.78;;;21.40;97.80;;;;;;5104078;28;20423;-73
2023/09/12 05:11:16;;;;;;;6.45;5.95;;;21.30;98.20;;;;;;5103984;28;20563;-70
2023/09/12 05:13:43;;;;;;;6.70;6.20;;;21.30;98.10;;;;;;5101308;28;20459;-71
2023/09/12 05:16:09;;;;;;;7.70;7.00;;;21.30;97.00;;;;;;5104400;28;20451;-70
2023/09/12 05:18:36;;;;;;;7.30;6.47;;;21.20;96.50;;;;;;5099306;28;20435;-70
2023/09/12 05:21:03;;;;;;;6.38;5.80;;;21.20;97.20;;;;;;5102064;28;20424;-70
2023/09/12 05:23:30;;;;;;;7.30;6.60;;;21.10;98.00;;;;;;5105185;28;20457;-71
2023/09/12 05:25:56;;;;;;;7.30;6.70;;;21.20;97.40;;;;;;5103880;28;20496;-69
2023/09/12 05:28:24;;;;;;;6.75;6.15;;;21.20;96.40;;;;;;5102725;28;21023;-71
2023/09/12 05:30:51;;;;;;;7.20;6.50;;;21.10;96.40;;;;;;5102905;28;20439;-71
2023/09/12 05:33:18;;;;;;;7.30;6.60;;;21.10;96.80;;;;;;5100853;28;20436;-71
2023/09/12 05:35:45;;;;;;;6.70;6.20;;;21.10;96.40;;;;;;5103531;28;20611;-69
2023/09/12 05:38:12;;;;;;;6.93;6.30;;;21.10;96.40;;;;;;5102204;28;20428;-71
2023/09/12 05:40:39;;;;;;;8.48;7.00;;;21.10;96.50;;;;;;5102771;28;20561;-70
2023/09/12 05:43:05;;;;;;;7.03;6.43;;;21.10;96.80;;;;;;5103583;28;20431;-70
2023/09/12 05:45:34;;;;;;;7.75;7.03;;;21.20;96.60;;;;;;5101977;28;20424;-70
2023/09/12 05:48:00;;;;;;;7.83;7.13;;;21.20;96.10;;;;;;5103920;28;20424;-70
2023/09/12 05:50:27;;;;;;;7.20;6.50;;;21.30;96.30;;;;;;5102143;28;20450;-71
2023/09/12 05:52:54;;;;;;;8.40;7.10;;;21.30;96.00;;;;;;5102504;28;20404;-71
2023/09/12 05:55:21;;;;;;;7.50;6.80;;;21.40;95.90;;;;;;5102165;28;20552;-71
2023/09/12 05:57:52;;;;;;;7.70;6.90;;;21.50;95.30;;;;;;5102717;28;20424;-72
2023/09/12 06:00:18;;;;;;;10.63;6.65;;;21.60;95.00;;;;;;5099748;28;20520;-69
2023/09/12 06:02:47;;;;;;;7.10;6.40;;;21.60;95.20;;;;;;5099191;28;20412;-70
2023/09/12 06:05:14;;;;;;;7.60;6.80;;;21.70;94.60;;;;;;5101804;28;20435;-70
2023/09/12 06:07:41;;;;;;;6.90;6.20;;;21.80;94.10;;;;;;5102807;28;20431;-70
2023/09/12 06:10:08;;;;;;;7.20;6.60;;;21.90;93.70;;;;;;5103193;28;20424;-72
2023/09/12 06:12:36;;;;;;;6.72;6.13;;;22.00;93.30;;;;;;5102546;28;20429;-69
2023/09/12 06:15:04;;;;;;;7.32;6.10;;;22.10;93.70;;;;;;5102382;28;20443;-69
2023/09/12 06:17:30;;;;;;;6.60;6.00;;;22.20;92.90;;;;;;5100787;28;20415;-69
2023/09/12 06:19:59;;;;;;;6.10;5.50;;;22.30;92.30;;;;;;5101116;28;20819;-70
2023/09/12 06:22:25;;;;;;;5.97;5.38;;;22.40;91.80;;;;;;5101004;28;20423;-70
2023/09/12 06:24:52;;;;;;;6.22;5.63;;;22.40;91.60;;;;;;5100632;28;20511;-72
2023/09/12 06:27:19;;;;;;;6.35;5.75;;;22.50;91.20;;;;;;5101439;28;20451;-71
2023/09/12 06:29:47;;;;;;;7.68;5.70;;;22.60;90.90;;;;;;5101767;28;20424;-72
2023/09/12 06:32:14;;;;;;;6.15;5.18;;;22.60;90.80;;;;;;5100507;28;20435;-72
2023/09/12 06:34:41;;;;;;;6.55;5.30;;;22.60;90.70;;;;;;5099697;28;20424;-72
2023/09/12 06:37:09;;;;;;;5.80;5.13;;;22.70;90.70;;;;;;5101108;28;20427;-71
2023/09/12 06:39:36;;;;;;;7.47;6.63;;;22.80;90.50;;;;;;5100627;28;20427;-71
2023/09/12 06:42:03;;;;;;;6.90;6.13;;;22.90;90.50;;;;;;5094886;28;20476;-71
2023/09/12 06:44:29;;;;;;;9.25;8.35;;;22.90;90.50;;;;;;5099804;28;20443;-71
2023/09/12 06:46:56;;;;;;;10.40;9.30;;;22.90;91.20;;;;;;5101745;28;20428;-71
2023/09/12 06:49:23;;;;;;;10.23;9.20;;;22.90;91.60;;;;;;5096385;28;20535;-70
2023/09/12 06:51:49;;;;;;;14.05;10.43;;;22.90;91.80;;;;;;5101176;28;20902;-70
2023/09/12 06:54:17;;;;;;;11.13;10.02;;;22.80;92.00;;;;;;5102275;28;20419;-70
2023/09/12 06:56:44;;;;;;;11.07;10.07;;;22.80;92.30;;;;;;5101446;28;20890;-69
2023/09/12 06:59:11;;;;;;;11.38;9.60;;;22.90;92.40;;;;;;5100024;28;20882;-70
2023/09/12 07:01:38;;;;;;;9.57;8.77;;;23.00;92.20;;;;;;5098399;28;20489;-71
2023/09/12 07:04:05;;;;;;;9.05;8.18;;;23.10;91.70;;;;;;5100907;28;20432;-70
2023/09/12 07:06:32;;;;;;;9.10;8.18;;;23.20;90.90;;;;;;5103196;28;20431;-70
2023/09/12 07:08:59;;;;;;;9.52;8.73;;;23.40;90.40;;;;;;5105572;28;20408;-71
2023/09/12 07:11:27;;;;;;;9.60;8.80;;;23.50;90.60;;;;;;5105419;27;20435;-71
2023/09/12 07:13:54;;;;;;;9.20;8.40;;;23.50;90.20;;;;;;5108254;28;20412;-71
2023/09/12 07:16:21;;;;;;;9.23;8.32;;;23.60;89.80;;;;;;5106848;28;20420;-71
2023/09/12 07:18:49;;;;;;;9.25;8.45;;;23.60;89.90;;;;;;5106078;28;20500;-71
2023/09/12 07:21:15;;;;;;;8.88;8.15;;;23.60;89.50;;;;;;5105133;28;20424;-71
2023/09/12 07:23:42;;;;;;;9.15;8.27;;;23.60;89.20;;;;;;5106616;28;20511;-70
2023/09/12 07:26:13;;;;;;;8.18;7.45;;;23.60;89.60;;;;;;5105066;28;20438;-71
2023/09/12 07:28:41;;;;;;;9.02;8.25;;;23.60;88.60;;;;;;5093016;28;20425;-71
2023/09/12 07:31:08;;;;;;;8.52;7.65;;;23.60;88.80;;;;;;5104655;28;20462;-72
2023/09/12 07:33:35;;;;;;;9.32;8.07;;;23.60;88.40;;;;;;5107229;28;20492;-72
2023/09/12 07:36:02;;;;;;;8.07;7.35;;;23.60;88.30;;;;;;5103910;28;20439;-71
2023/09/12 07:38:30;;;;;;;8.10;7.40;;;23.70;88.20;;;;;;5103874;28;20507;-71
2023/09/12 07:40:57;;;;;;;8.68;7.88;;;23.70;87.90;;;;;;5101899;28;20501;-71
2023/09/12 07:43:24;;;;;;;8.03;7.23;;;23.80;88.10;;;;;;5104312;27;20465;-71
2023/09/12 07:45:56;;;;;;;7.32;6.72;;;23.80;87.80;;;;;;5103937;28;20428;-72
2023/09/12 07:48:22;;;;;;;7.10;6.50;;;23.90;87.10;;;;;;5103722;28;20451;-72
2023/09/12 07:50:49;;;;;;;6.60;5.90;;;24.00;86.40;;;;;;5101683;28;20428;-71
2023/09/12 07:53:16;;;;;;;6.30;5.70;;;24.10;86.20;;;;;;5102918;28;20424;-71
2023/09/12 07:55:46;;;;;;;6.75;6.05;;;24.20;85.50;;;;;;5103472;28;20424;-72
2023/09/12 07:58:13;;;;;;;5.90;5.30;;;24.30;84.30;;;;;;5103579;28;20428;-72
2023/09/12 08:00:40;;;;;;;8.60;5.90;;;24.40;83.70;;;;;;5104627;28;20428;-72
2023/09/12 08:03:08;;;;;;;5.75;5.20;;;24.50;83.10;;;;;;5098420;28;20752;-71
2023/09/12 08:05:35;;;;;;;5.95;5.45;;;24.60;82.60;;;;;;5103231;28;20889;-71
2023/09/12 08:08:02;;;;;;;5.38;4.97;;;24.60;81.90;;;;;;5096086;28;20559;-71
2023/09/12 08:10:29;;;;;;;6.03;4.90;;;24.80;81.40;;;;;;5102997;28;20424;-71
2023/09/12 08:12:55;;;;;;;5.88;5.35;;;24.80;80.40;;;;;;5123230;22;20420;-68
2023/09/12 08:15:22;;;;;;;5.93;5.32;;;24.90;79.80;;;;;;5080516;28;20436;-68
2023/09/12 08:17:51;;;;;;;6.00;5.60;;;25.00;79.50;;;;;;5088329;28;20715;-69
2023/09/12 08:20:20;;;;;;;6.47;5.38;;;25.10;78.90;;;;;;5086697;28;20457;-70
2023/09/12 08:22:47;;;;;;;5.10;4.60;;;25.20;78.10;;;;;;5081200;28;20452;-66
2023/09/12 08:25:14;;;;;;;5.60;5.10;;;25.30;77.70;;;;;;5068380;28;20486;-67
2023/09/12 08:27:42;;;;;;;5.70;5.20;;;25.40;77.00;;;;;;5073516;28;20904;-68
2023/09/12 08:30:10;;;;;;;4.95;4.50;;;25.50;76.40;;;;;;5064221;28;20479;-69
2023/09/12 08:32:39;;;;;;;5.65;4.80;;;25.60;76.40;;;;;;5067419;28;20432;-67
2023/09/12 08:35:06;;;;;;;6.30;5.70;;;25.60;76.80;;;;;;5065758;28;20446;-65
2023/09/12 08:37:34;;;;;;;5.70;5.20;;;25.70;76.00;;;;;;5064042;28;20428;-66
2023/09/12 08:40:07;;;;;;;6.95;6.35;;;25.60;75.70;;;;;;5062578;28;20417;-65
2023/09/12 08:42:38;;;;;;;6.90;6.30;;;25.60;75.70;;;;;;5059359;28;20421;-66
2023/09/12 08:45:06;;;;;;;6.78;6.18;;;25.60;76.40;;;;;;5060060;28;20449;-65
2023/09/12 08:47:35;;;;;;;6.47;5.88;;;25.70;76.00;;;;;;5059672;28;20440;-74
2023/09/12 08:50:03;;;;;;;6.18;5.57;;;25.70;75.70;;;;;;5057594;28;20930;-74
2023/09/12 08:52:30;;;;;;;7.00;6.40;;;25.90;76.20;;;;;;5059434;28;20431;-74
2023/09/12 08:54:58;;;;;;;7.10;6.50;;;26.00;75.70;;;;;;5063900;28;20433;-73
2023/09/12 08:57:26;;;;;;;6.80;6.30;;;26.10;75.30;;;;;;5064421;28;20556;-76
2023/09/12 08:59:54;;;;;;;6.28;5.68;;;26.10;75.50;;;;;;5055164;28;20435;-73
2023/09/12 09:02:22;;;;;;;6.82;6.13;;;26.20;75.20;;;;;;5065216;28;20926;-76
2023/09/12 09:04:51;;;;;;;6.20;5.70;;;26.20;74.90;;;;;;5062958;28;20430;-75
2023/09/12 09:07:19;;;;;;;6.55;5.85;;;26.30;74.40;;;;;;5066706;28;20439;-76
2023/09/12 09:09:47;;;;;;;6.75;6.15;;;26.50;73.90;;;;;;5061847;28;20450;-73
2023/09/12 09:12:15;;;;;;;6.38;5.78;;;26.60;73.60;;;;;;5069251;28;20439;-72
2023/09/12 09:14:42;;;;;;;6.05;5.45;;;26.70;72.90;;;;;;5059601;28;20890;-74
2023/09/12 09:17:11;;;;;;;6.53;5.80;;;26.80;72.60;;;;;;5062993;28;20848;-74
2023/09/12 09:19:45;;;;;;;5.70;5.30;;;26.90;71.80;;;;;;5059365;28;20459;-75
2023/09/12 09:22:12;;;;;;;6.20;5.70;;;27.10;71.20;;;;;;5067294;28;20432;-73
2023/09/12 09:24:39;;;;;;;5.77;5.27;;;27.30;70.00;;;;;;5062842;28;20432;-73
2023/09/12 09:27:06;;;;;;;5.78;5.28;;;27.20;70.20;;;;;;5059734;28;21063;-75
2023/09/12 09:29:47;;;;;;;5.05;4.70;;;27.30;69.70;;;;;;5052278;28;20501;-74
2023/09/12 09:32:18;;;;;;;6.10;5.50;;;27.40;69.90;;;;;;5056416;28;20433;-74
2023/09/12 09:34:45;;;;;;;5.88;5.30;;;27.50;69.90;;;;;;5059055;28;20412;-73
2023/09/12 09:37:12;;;;;;;5.80;5.22;;;27.70;68.90;;;;;;5069228;28;20434;-75
2023/09/12 09:39:38;;;;;;;5.20;4.70;;;27.80;67.30;;;;;;5065143;28;20937;-74
2023/09/12 09:42:11;;;;;;;5.35;4.70;;;27.90;67.40;;;;;;5063396;28;20434;-74
2023/09/12 09:44:39;;;;;;;5.30;4.80;;;27.90;67.20;;;;;;5060298;28;20881;-75
2023/09/12 09:47:06;;;;;;;5.22;4.82;;;28.10;66.60;;;;;;5061451;28;20437;-74
2023/09/12 09:49:34;;;;;;;4.80;4.50;;;28.10;66.00;;;;;;5067485;28;20427;-74
2023/09/12 09:52:04;;;;;;;5.30;4.90;;;28.00;66.60;;;;;;5066875;28;20910;-73
2023/09/12 09:54:30;;;;;;;5.03;4.63;;;27.80;66.60;;;;;;5060180;28;20437;-72
2023/09/12 09:56:58;;;;;;;9.27;5.10;;;27.50;67.60;;;;;;5074079;28;20436;-75
2023/09/12 09:59:26;;;;;;;6.00;4.80;;;27.40;69.00;;;;;;5069788;28;20432;-72
2023/09/12 10:01:57;;;;;;;5.20;4.68;;;27.50;68.00;;;;;;5062734;28;20455;-74
2023/09/12 10:04:25;;;;;;;5.13;4.40;;;27.70;68.30;;;;;;5074265;28;20490;-72
2023/09/12 10:06:52;;;;;;;4.65;4.25;;;27.70;68.20;;;;;;5079302;28;20425;-74
2023/09/12 10:09:23;;;;;;;5.40;4.43;;;27.70;68.40;;;;;;5082132;28;20459;-71
2023/09/12 10:11:51;;;;;;;5.20;4.70;;;27.60;68.50;;;;;;5075339;28;20435;-72
2023/09/12 10:14:20;;;;;;;4.30;3.90;;;27.40;69.50;;;;;;5071062;28;20877;-72
2023/09/12 10:16:49;;;;;;;4.57;4.18;;;27.30;70.20;;;;;;5064697;28;20425;-72
2023/09/12 10:19:19;;;;;;;4.50;4.10;;;27.30;70.40;;;;;;5066022;28;20501;-71
2023/09/12 10:21:50;;;;;;;4.00;3.70;;;27.30;70.60;;;;;;5071356;28;20408;-72
2023/09/12 10:24:17;;;;;;;4.70;4.30;;;27.40;70.80;;;;;;5067321;28;21045;-72
2023/09/12 10:26:45;;;;;;;4.20;3.70;;;27.50;70.30;;;;;;5064059;28;20437;-71
2023/09/12 10:29:15;;;;;;;4.10;3.80;;;27.70;69.90;;;;;;5055996;28;20523;-71
2023/09/12 10:31:42;;;;;;;4.00;3.70;;;27.90;68.20;;;;;;5066141;28;20429;-71
2023/09/12 10:34:12;;;;;;;4.55;4.15;;;27.90;67.40;;;;;;5061469;28;20904;-72
2023/09/12 10:36:41;;;;;;;4.10;3.80;;;28.00;67.40;;;;;;5061261;28;20437;-73
2023/09/12 10:39:09;;;;;;;5.28;4.78;;;28.00;67.20;;;;;;5060095;28;20913;-72
2023/09/12 10:41:39;;;;;;;4.73;4.23;;;28.10;66.50;;;;;;5055134;28;20421;-70
2023/09/12 10:44:10;;;;;;;5.60;4.40;;;28.20;65.90;;;;;;5067183;28;20427;-73
2023/09/12 10:46:38;;;;;;;4.40;4.00;;;28.20;66.00;;;;;;5068574;28;20440;-71
2023/09/12 10:49:08;;;;;;;4.75;3.80;;;28.10;66.80;;;;;;5060083;28;20885;-71
2023/09/12 10:51:38;;;;;;;3.92;3.63;;;28.30;66.30;;;;;;5062125;28;20931;-71
2023/09/12 10:54:06;;;;;;;4.50;4.20;;;28.40;66.30;;;;;;5056646;28;20925;-73
2023/09/12 10:56:34;;;;;;;3.90;3.60;;;28.60;64.70;;;;;;5056280;28;20759;-74
2023/09/12 10:59:14;;;;;;;4.40;4.00;;;28.70;64.20;;;;;;5056387;28;20427;-71
2023/09/12 11:01:45;;;;;;;4.00;3.70;;;28.70;64.80;;;;;;5065288;28;20441;-71
2023/09/12 11:04:38;;;;;;;4.28;3.88;;;28.70;63.90;;;;;;5061624;28;20959;-72
2023/09/12 11:07:34;;;;;;;5.18;4.68;;;28.50;64.20;;;;;;5021002;28;20423;-71
2023/09/12 11:10:23;;;;;;;4.53;4.13;;;28.50;64.40;;;;;;5065354;28;20427;-73
2023/09/12 11:12:52;;;;;;;4.90;4.50;;;28.50;64.40;;;;;;5061071;28;20472;-71
2023/09/12 11:15:20;;;;;;;5.22;4.75;;;28.60;64.20;;;;;;5072018;28;20434;-71
2023/09/12 11:17:48;;;;;;;5.50;5.00;;;28.60;64.00;;;;;;5090671;28;20421;-70
2023/09/12 11:20:16;;;;;;;4.40;4.00;;;28.70;62.90;;;;;;5086906;28;20441;-72
2023/09/12 11:22:44;;;;;;;5.22;4.82;;;28.80;63.10;;;;;;5089367;28;20433;-70
2023/09/12 11:25:19;;;;;;;4.82;4.45;;;28.80;62.30;;;;;;5087193;28;20405;-69
2023/09/12 11:28:03;;;;;;;4.67;4.17;;;28.90;61.90;;;;;;5083666;28;20427;-72
2023/09/12 11:30:31;;;;;;;4.35;3.63;;;29.10;61.40;;;;;;5058026;28;20407;-72
2023/09/12 11:32:59;;;;;;;4.40;4.00;;;29.10;62.20;;;;;;5057319;28;20466;-72
2023/09/12 11:35:28;;;;;;;4.38;3.97;;;29.30;61.90;;;;;;5056669;28;20433;-71
2023/09/12 11:37:57;;;;;;;4.15;3.75;;;29.30;61.20;;;;;;5057066;28;20917;-71
2023/09/12 11:40:25;;;;;;;3.97;3.67;;;29.40;60.40;;;;;;5066995;28;20468;-69
2023/09/12 11:42:53;;;;;;;4.50;4.10;;;29.50;60.30;;;;;;5058980;28;20452;-72
2023/09/12 11:45:21;;;;;;;5.00;4.50;;;29.10;61.10;;;;;;5056575;28;20423;-72
2023/09/12 11:47:48;;;;;;;4.78;4.15;;;28.70;63.60;;;;;;5075001;28;20461;-72
2023/09/12 11:50:27;;;;;;;9.90;5.32;;;28.40;64.60;;;;;;5090565;28;20419;-71
2023/09/12 11:53:04;;;;;;;15.77;6.90;;;28.60;63.10;;;;;;5074589;28;20405;-71
2023/09/12 11:55:32;;;;;;;7.43;5.00;;;28.70;63.40;;;;;;5082960;28;20431;-70
2023/09/12 11:58:01;;;;;;;7.55;5.35;;;28.60;63.80;;;;;;5082550;28;20511;-72
2023/09/12 12:00:28;;;;;;;7.13;5.00;;;28.60;65.30;;;;;;5078196;28;20431;-72
2023/09/12 12:02:55;;;;;;;7.13;4.82;;;28.50;64.70;;;;;;5078154;28;20504;-70
2023/09/12 12:05:23;;;;;;;5.87;4.00;;;28.40;65.30;;;;;;5064816;28;20443;-73
2023/09/12 12:07:51;;;;;;;4.30;3.90;;;28.40;65.10;;;;;;5068866;28;20435;-71
2023/09/12 12:10:18;;;;;;;5.28;4.53;;;28.20;64.90;;;;;;5071018;28;20423;-75
2023/09/12 12:12:45;;;;;;;4.47;4.07;;;28.00;65.50;;;;;;5063759;28;20407;-73
2023/09/12 12:15:14;;;;;;;4.88;4.40;;;28.00;65.80;;;;;;5060217;28;20975;-74
2023/09/12 12:17:42;;;;;;;4.47;4.07;;;28.10;65.90;;;;;;5061801;28;20953;-74
2023/09/12 12:20:10;;;;;;;4.95;4.50;;;28.00;65.60;;;;;;5057740;28;20437;-73
2023/09/12 12:22:38;;;;;;;4.25;3.95;;;28.10;66.00;;;;;;5057157;28;20516;-72
2023/09/12 12:25:08;;;;;;;4.50;4.10;;;28.10;66.10;;;;;;5070381;28;20527;-73
2023/09/12 12:27:37;;;;;;;4.93;4.53;;;28.20;65.30;;;;;;5057659;28;20432;-72
2023/09/12 12:30:05;;;;;;;4.55;4.25;;;28.10;64.90;;;;;;5057287;28;20491;-73
2023/09/12 12:32:33;;;;;;;4.80;4.40;;;27.90;65.30;;;;;;5061273;28;20797;-73
2023/09/12 12:35:02;;;;;;;4.70;4.30;;;27.90;65.90;;;;;;5069422;28;20413;-73
2023/09/12 12:37:31;;;;;;;6.00;4.10;;;28.00;65.50;;;;;;5078652;28;20450;-71
2023/09/12 12:39:58;;;;;;;4.60;4.20;;;28.20;65.10;;;;;;5065606;28;20411;-73
2023/09/12 12:42:25;;;;;;;4.30;3.90;;;28.20;64.60;;;;;;5064198;28;20436;-72
2023/09/12 12:44:54;;;;;;;4.63;4.22;;;28.30;64.80;;;;;;5062621;28;20518;-74
2023/09/12 12:47:22;;;;;;;4.17;3.87;;;28.30;64.10;;;;;;5065105;28;20438;-71
2023/09/12 12:49:53;;;;;;;4.90;4.40;;;28.30;63.90;;;;;;5059911;28;20793;-72